createdAt,value
2022-11-23T00:01:40.632Z,21.90
2022-11-23T00:04:15.364Z,19.00
2022-11-23T00:06:47.637Z,22.50
2022-11-23T00:09:19.922Z,19.40
2022-11-23T00:11:52.200Z,20.50
2022-11-23T00:14:24.507Z,20.20
2022-11-23T00:16:56.780Z,20.40
2022-11-23T00:19:29.297Z,21.60
2022-11-23T00:22:01.949Z,19.20
2022-11-23T00:24:34.309Z,19.50
2022-11-23T00:27:06.696Z,19.20
2022-11-23T00:29:38.900Z,20.20
2022-11-23T00:32:11.143Z,19.30
2022-11-23T00:34:43.724Z,20.20
2022-11-23T00:37:16.000Z,18.60
2022-11-23T00:39:48.321Z,18.00
2022-11-23T00:42:20.681Z,18.10
2022-11-23T00:44:52.930Z,21.00
2022-11-23T00:47:25.446Z,19.70
2022-11-23T00:49:57.689Z,20.50
2022-11-23T00:52:29.990Z,17.30
2022-11-23T00:55:02.249Z,21.00
2022-11-23T00:57:36.025Z,18.90
2022-11-23T01:00:12.716Z,19.20
2022-11-23T01:02:45.055Z,17.00
2022-11-23T01:05:17.606Z,19.50
2022-11-23T01:07:49.902Z,19.20
2022-11-23T01:10:22.164Z,21.20
2022-11-23T01:12:54.480Z,23.50
2022-11-23T01:15:27.124Z,18.20
2022-11-23T01:20:29.996Z,19.50
2022-11-23T01:23:02.412Z,19.90
2022-11-23T01:25:36.916Z,20.00
2022-11-23T01:28:09.409Z,21.40
2022-11-23T01:30:41.844Z,17.60
2022-11-23T01:33:14.140Z,16.70
2022-11-23T01:35:46.474Z,18.80
2022-11-23T01:41:24.702Z,21.40
2022-11-23T01:43:57.613Z,20.90
2022-11-23T01:46:30.013Z,21.10
2022-11-23T01:49:05.625Z,20.90
2022-11-23T01:51:40.902Z,19.10
2022-11-23T01:54:15.979Z,18.40
2022-11-23T01:56:52.240Z,23.20
2022-11-23T01:59:24.963Z,19.60
2022-11-23T02:04:31.544Z,17.40
2022-11-23T02:07:05.166Z,18.00
2022-11-23T02:09:37.837Z,17.50
2022-11-23T02:14:44.154Z,19.40
2022-11-23T02:17:16.864Z,17.90
2022-11-23T02:22:28.329Z,19.30
2022-11-23T02:25:02.435Z,19.80
2022-11-23T02:27:34.814Z,19.70
2022-11-23T02:30:08.495Z,16.70
2022-11-23T02:32:41.255Z,19.40
2022-11-23T02:37:45.022Z,18.40
2022-11-23T02:40:21.956Z,19.70
2022-11-23T02:42:54.445Z,17.10
2022-11-23T02:45:33.140Z,18.70
2022-11-23T02:48:05.656Z,21.80
2022-11-23T02:50:38.073Z,19.20
2022-11-23T02:53:10.605Z,18.60
2022-11-23T02:55:43.013Z,21.50
2022-11-23T02:58:15.480Z,18.00
2022-11-23T03:03:18.555Z,16.90
2022-11-23T03:05:50.817Z,20.70
2022-11-23T03:08:23.132Z,20.90
2022-11-23T03:10:55.443Z,18.60
2022-11-23T03:13:27.830Z,19.80
2022-11-23T03:16:00.058Z,18.30
2022-11-23T03:18:32.304Z,20.30
2022-11-23T03:21:08.897Z,22.30
2022-11-23T03:23:41.380Z,21.00
2022-11-23T03:26:13.804Z,20.60
2022-11-23T03:28:46.104Z,21.20
2022-11-23T03:31:18.370Z,19.20
2022-11-23T03:33:50.601Z,17.60
2022-11-23T03:36:22.875Z,19.40
2022-11-23T03:38:55.184Z,18.40
2022-11-23T03:41:27.383Z,20.80
2022-11-23T03:44:00.078Z,19.20
2022-11-23T03:49:02.992Z,18.00
2022-11-23T03:51:35.246Z,19.50
2022-11-23T03:54:07.949Z,18.40
2022-11-23T03:59:11.077Z,21.90
2022-11-23T04:04:13.912Z,18.10
2022-11-23T04:06:46.166Z,18.80
2022-11-23T04:09:18.427Z,19.50
2022-11-23T04:11:50.703Z,20.80
2022-11-23T04:18:41.872Z,16.30
2022-11-23T04:21:14.255Z,18.20
2022-11-23T04:23:49.022Z,17.00
2022-11-23T04:26:21.356Z,15.40
2022-11-23T04:28:53.647Z,15.10
2022-11-23T04:31:25.797Z,15.60
2022-11-23T04:33:59.067Z,15.20
2022-11-23T04:36:31.592Z,17.70
2022-11-23T04:43:55.904Z,16.60
2022-11-23T04:46:28.391Z,17.20
2022-11-23T04:51:31.331Z,18.80
2022-11-23T04:54:03.585Z,17.90
2022-11-23T04:56:36.038Z,15.20
2022-11-23T05:01:39.664Z,15.70
2022-11-23T05:04:17.435Z,18.10
2022-11-23T05:06:50.000Z,16.80
2022-11-23T05:09:22.504Z,16.90
2022-11-23T05:11:54.692Z,16.70
2022-11-23T05:14:27.109Z,21.60
2022-11-23T05:16:59.247Z,17.10
2022-11-23T05:19:31.610Z,17.70
2022-11-23T05:22:04.014Z,19.10
2022-11-23T05:24:36.216Z,15.90
2022-11-23T05:27:08.478Z,16.00
2022-11-23T05:29:40.781Z,20.20
2022-11-23T05:32:13.093Z,19.40
2022-11-23T05:34:45.461Z,19.90
2022-11-23T05:37:18.122Z,20.90
2022-11-23T05:42:20.856Z,17.20
2022-11-23T05:44:53.145Z,14.80
2022-11-23T05:47:25.539Z,17.50
2022-11-23T05:49:57.815Z,17.60
2022-11-23T05:52:30.174Z,19.40
2022-11-23T05:55:02.404Z,17.30
2022-11-23T05:57:34.761Z,17.00
2022-11-23T06:00:08.514Z,16.60
2022-11-23T06:02:41.341Z,13.70
2022-11-23T06:05:14.425Z,15.40
2022-11-23T06:07:46.768Z,13.80
2022-11-23T06:10:19.308Z,15.40
2022-11-23T06:12:52.706Z,12.40
2022-11-23T06:15:24.956Z,16.90
2022-11-23T06:17:59.746Z,12.00
2022-11-23T06:20:32.259Z,15.40
2022-11-23T06:23:04.475Z,15.00
2022-11-23T06:25:38.570Z,13.00
2022-11-23T06:28:10.974Z,18.00
2022-11-23T06:30:43.223Z,14.90
2022-11-23T06:33:15.680Z,15.30
2022-11-23T06:35:55.134Z,17.40
2022-11-23T06:38:27.619Z,17.30
2022-11-23T06:41:01.986Z,14.90
2022-11-23T06:43:34.448Z,15.30
2022-11-23T06:46:08.361Z,13.30
2022-11-23T06:48:40.747Z,12.90
2022-11-23T06:51:13.074Z,12.50
2022-11-23T06:53:45.329Z,12.80
2022-11-23T06:56:17.575Z,12.20
2022-11-23T06:58:49.757Z,12.90
2022-11-23T07:01:22.105Z,12.90
2022-11-23T07:06:25.092Z,10.80
2022-11-23T07:08:58.540Z,14.50
2022-11-23T07:11:30.698Z,10.90
2022-11-23T07:14:02.821Z,10.40
2022-11-23T07:16:35.051Z,11.30
2022-11-23T07:19:07.349Z,11.80
2022-11-23T07:21:39.867Z,13.50
2022-11-23T07:24:12.410Z,13.10
2022-11-23T07:29:15.200Z,13.40
2022-11-23T07:31:47.471Z,12.60
2022-11-23T07:34:19.671Z,14.30
2022-11-23T07:36:51.853Z,13.50
2022-11-23T07:39:41.919Z,12.50
2022-11-23T07:42:32.432Z,9.90
2022-11-23T07:45:08.461Z,13.00
2022-11-23T07:47:40.880Z,12.40
2022-11-23T07:50:14.196Z,14.70
2022-11-23T07:52:46.371Z,10.00
2022-11-23T07:55:18.700Z,11.30
2022-11-23T07:57:54.954Z,12.00
2022-11-23T08:00:28.476Z,10.70
2022-11-23T08:05:54.273Z,10.80
2022-11-23T08:08:26.540Z,11.80
2022-11-23T08:10:58.853Z,11.80
2022-11-23T08:13:31.978Z,9.90
2022-11-23T08:16:04.827Z,9.10
2022-11-23T08:18:37.534Z,11.30
2022-11-23T08:21:09.920Z,12.00
2022-11-23T08:23:42.204Z,9.90
2022-11-23T08:26:14.553Z,9.60
2022-11-23T08:28:46.857Z,13.00
2022-11-23T08:31:19.030Z,11.50
2022-11-23T08:33:51.308Z,9.80
2022-11-23T08:36:23.567Z,12.80
2022-11-23T08:38:55.855Z,12.30
2022-11-23T08:41:29.026Z,11.10
2022-11-23T08:44:01.246Z,11.10
2022-11-23T08:46:33.748Z,11.00
2022-11-23T08:49:07.272Z,11.50
2022-11-23T08:51:41.705Z,13.90
2022-11-23T08:54:15.962Z,12.10
2022-11-23T08:59:20.431Z,12.70
2022-11-23T09:01:52.748Z,17.10
2022-11-23T09:04:27.725Z,12.60
2022-11-23T09:07:00.106Z,13.40
2022-11-23T09:09:32.380Z,13.70
2022-11-23T09:12:05.417Z,13.50
2022-11-23T09:14:37.901Z,12.30
2022-11-23T09:17:10.303Z,15.20
2022-11-23T09:19:42.542Z,14.10
2022-11-23T09:22:15.223Z,13.80
2022-11-23T09:24:48.085Z,16.30
2022-11-23T09:27:21.298Z,14.40
2022-11-23T09:29:53.518Z,18.30
2022-11-23T09:32:26.756Z,15.00
2022-11-23T09:35:00.059Z,15.50
2022-11-23T09:37:32.348Z,15.30
2022-11-23T09:40:04.688Z,16.30
2022-11-23T09:43:02.448Z,15.10
2022-11-23T09:45:38.598Z,14.30
2022-11-23T09:48:30.027Z,15.20
2022-11-23T09:51:05.885Z,15.70
2022-11-23T09:53:40.311Z,15.70
2022-11-23T09:56:19.565Z,18.40
2022-11-23T09:58:53.774Z,16.10
2022-11-23T10:01:27.732Z,15.90
2022-11-23T10:04:01.395Z,14.70
2022-11-23T10:06:38.811Z,13.70
2022-11-23T10:09:25.229Z,17.30
2022-11-23T10:12:06.014Z,17.80
2022-11-23T10:14:49.407Z,16.60
2022-11-23T10:17:29.894Z,19.30
2022-11-23T10:20:17.618Z,18.20
2022-11-23T10:22:58.387Z,18.30
2022-11-23T10:25:39.343Z,20.70
2022-11-23T10:28:18.097Z,21.80
2022-11-23T10:30:57.616Z,19.30
2022-11-23T10:33:35.084Z,17.90
2022-11-23T10:36:10.297Z,17.30
2022-11-23T10:38:44.092Z,18.80
2022-11-23T10:41:17.427Z,20.80
2022-11-23T10:43:54.078Z,20.00
2022-11-23T10:46:39.505Z,20.00
2022-11-23T10:49:20.819Z,19.60
2022-11-23T10:51:56.362Z,22.20
2022-11-23T10:54:37.137Z,23.70
2022-11-23T10:57:31.571Z,21.60
2022-11-23T11:00:08.088Z,19.90
2022-11-23T11:02:44.459Z,21.20
2022-11-23T11:06:07.143Z,21.80
2022-11-23T11:08:23.700Z,21.90
2022-11-23T11:11:04.139Z,18.60
2022-11-23T11:19:27.504Z,22.20
2022-11-23T11:22:01.119Z,22.90
2022-11-23T11:24:35.311Z,23.20
2022-11-23T11:27:15.885Z,21.60
2022-11-23T11:29:52.078Z,23.50
2022-11-23T11:32:27.286Z,21.30
2022-11-23T11:35:05.274Z,25.00
2022-11-23T11:37:38.876Z,24.90
2022-11-23T11:40:20.351Z,23.90
2022-11-23T11:42:55.780Z,27.30
2022-11-23T11:45:29.532Z,23.60
2022-11-23T11:48:04.867Z,26.50
2022-11-23T11:50:40.551Z,20.90
2022-11-23T11:53:16.705Z,24.20
2022-11-23T11:55:54.327Z,23.50
2022-11-23T11:58:27.500Z,18.20
2022-11-23T12:01:05.411Z,20.50
2022-11-23T12:03:44.467Z,21.80
2022-11-23T12:06:26.486Z,21.20
2022-11-23T12:09:03.443Z,23.50
2022-11-23T12:11:36.886Z,21.00
2022-11-23T12:14:13.149Z,24.60
2022-11-23T12:20:52.650Z,27.70
2022-11-23T12:23:31.860Z,24.50
2022-11-23T12:26:17.613Z,23.30
2022-11-23T12:29:02.859Z,22.10
2022-11-23T12:31:41.028Z,20.00
2022-11-23T12:34:40.902Z,22.70
2022-11-23T12:37:36.632Z,23.80
2022-11-23T12:40:37.925Z,24.80
2022-11-23T12:43:15.247Z,27.00
2022-11-23T12:45:58.048Z,21.30
2022-11-23T12:48:38.258Z,22.30
2022-11-23T12:51:19.949Z,22.30
2022-11-23T12:54:00.136Z,23.40
2022-11-23T12:56:59.906Z,25.50
2022-11-23T12:59:41.315Z,22.50
2022-11-23T13:02:21.865Z,23.60
2022-11-23T13:05:27.410Z,25.10
2022-11-23T13:08:17.109Z,23.80
2022-11-23T13:10:57.101Z,28.30
2022-11-23T13:13:38.170Z,26.90
2022-11-23T13:16:25.745Z,25.70
2022-11-23T13:19:13.274Z,29.60
2022-11-23T13:21:46.850Z,26.90
2022-11-23T13:24:29.804Z,27.60
2022-11-23T13:27:32.673Z,24.60
2022-11-23T13:30:11.905Z,27.20
2022-11-23T13:32:56.578Z,34.30
2022-11-23T13:36:12.512Z,27.60
2022-11-23T13:38:47.697Z,26.70
2022-11-23T13:41:53.701Z,26.50
2022-11-23T13:44:28.028Z,29.60
2022-11-23T13:47:22.692Z,28.60
2022-11-23T13:49:55.681Z,35.00
2022-11-23T13:52:36.414Z,32.10
2022-11-23T13:55:23.471Z,28.70
2022-11-23T13:58:30.290Z,30.10
2022-11-23T14:01:03.891Z,25.90
2022-11-23T14:03:51.183Z,33.80
2022-11-23T14:06:38.591Z,34.50
2022-11-23T14:09:18.053Z,31.30
2022-11-23T14:12:03.144Z,30.00
2022-11-23T14:14:44.497Z,31.90
2022-11-23T14:17:31.221Z,31.00
2022-11-23T14:20:17.624Z,32.30
2022-11-23T14:22:59.503Z,37.40
2022-11-23T14:25:41.739Z,34.30
2022-11-23T14:28:28.656Z,36.30
2022-11-23T14:31:12.379Z,37.30
2022-11-23T14:33:47.678Z,44.00
2022-11-23T14:36:28.701Z,40.50
2022-11-23T14:39:09.537Z,40.70
2022-11-23T14:41:42.686Z,40.20
2022-11-23T14:44:16.575Z,41.10
2022-11-23T14:49:53.597Z,46.10
2022-11-23T14:52:27.611Z,47.70
2022-11-23T14:55:02.999Z,48.70
2022-11-23T14:57:41.385Z,41.50
2022-11-23T15:00:28.148Z,42.60
2022-11-23T15:03:15.347Z,45.10
2022-11-23T15:05:57.787Z,42.90
2022-11-23T15:08:32.076Z,47.50
2022-11-23T15:11:09.742Z,43.80
2022-11-23T15:13:48.255Z,42.40
2022-11-23T15:16:22.362Z,43.30
2022-11-23T15:18:54.727Z,45.80
2022-11-23T15:21:28.400Z,46.90
2022-11-23T15:24:00.859Z,45.10
2022-11-23T15:26:49.572Z,47.20
2022-11-23T15:29:40.096Z,44.80
2022-11-23T15:32:32.844Z,46.00
2022-11-23T15:35:09.315Z,56.40
2022-11-23T15:37:46.253Z,50.10
2022-11-23T15:40:21.379Z,51.50
2022-11-23T15:42:53.755Z,51.80
2022-11-23T15:45:40.680Z,49.80
2022-11-23T15:48:16.871Z,54.50
2022-11-23T15:50:53.337Z,43.40
2022-11-23T15:53:29.218Z,52.50
2022-11-23T15:56:05.401Z,48.20
2022-11-23T15:58:38.106Z,45.70
2022-11-23T16:01:14.456Z,45.70
2022-11-23T16:03:52.746Z,43.90
2022-11-23T16:06:36.502Z,46.80
2022-11-23T16:09:50.392Z,46.50
2022-11-23T16:12:27.003Z,53.30
2022-11-23T16:15:23.367Z,47.90
2022-11-23T16:17:55.972Z,44.40
2022-11-23T16:23:01.449Z,43.70
2022-11-23T16:25:35.256Z,42.90
2022-11-23T16:28:16.373Z,48.50
2022-11-23T16:30:49.155Z,48.50
2022-11-23T16:33:23.055Z,48.70
2022-11-23T16:35:55.661Z,44.30
2022-11-23T16:38:28.783Z,43.70
2022-11-23T16:41:01.375Z,45.80
2022-11-23T16:43:34.281Z,47.70
2022-11-23T16:46:07.373Z,42.80
2022-11-23T16:48:43.066Z,46.40
2022-11-23T16:51:16.349Z,40.90
2022-11-23T16:56:43.171Z,40.60
2022-11-23T16:59:19.475Z,36.90
2022-11-23T17:01:57.254Z,41.20
2022-11-23T17:04:31.423Z,35.40
2022-11-23T17:07:04.384Z,31.00
2022-11-23T17:09:36.937Z,35.40
2022-11-23T17:12:13.569Z,34.70
2022-11-23T17:14:48.337Z,32.40
2022-11-23T17:17:22.484Z,34.20
2022-11-23T17:19:57.517Z,37.30
2022-11-23T17:22:32.665Z,24.70
2022-11-23T17:25:08.961Z,26.30
2022-11-23T17:27:48.602Z,24.20
2022-11-23T17:30:24.046Z,26.00
2022-11-23T17:32:56.713Z,25.00
2022-11-23T17:38:00.783Z,28.10
2022-11-23T17:40:33.920Z,32.00
2022-11-23T17:43:06.471Z,33.50
2022-11-23T17:45:39.002Z,32.90
2022-11-23T17:48:15.377Z,37.90
2022-11-23T17:50:49.103Z,36.30
2022-11-23T17:53:25.388Z,36.40
2022-11-23T17:55:58.580Z,31.60
2022-11-23T17:58:31.133Z,33.60
2022-11-23T18:03:34.715Z,34.60
2022-11-23T18:06:08.007Z,35.30
2022-11-23T18:08:40.466Z,33.50
2022-11-23T18:11:13.105Z,32.50
2022-11-23T18:13:47.221Z,32.10
2022-11-23T18:16:20.819Z,29.90
2022-11-23T18:18:53.357Z,28.40
2022-11-23T18:21:27.247Z,30.30
2022-11-23T18:24:04.334Z,29.40
2022-11-23T18:26:37.939Z,28.00
2022-11-23T18:29:16.711Z,29.10
2022-11-23T18:31:50.115Z,31.80
2022-11-23T18:34:22.583Z,33.20
2022-11-23T18:36:55.123Z,32.90
2022-11-23T18:39:28.439Z,30.60
2022-11-23T18:42:05.463Z,31.60
2022-11-23T18:44:38.822Z,32.00
2022-11-23T18:47:11.292Z,27.10
2022-11-23T18:49:47.597Z,31.00
2022-11-23T18:52:23.175Z,28.90
2022-11-23T18:54:56.434Z,30.50
2022-11-23T18:57:32.270Z,29.50
2022-11-23T19:00:06.618Z,32.20
2022-11-23T19:02:39.469Z,29.30
2022-11-23T19:05:12.197Z,31.30
2022-11-23T19:10:17.161Z,30.80
2022-11-23T19:12:49.770Z,32.00
2022-11-23T19:15:22.241Z,31.90
2022-11-23T19:18:05.411Z,31.20
2022-11-23T19:20:46.039Z,29.90
2022-11-23T19:23:29.892Z,32.60
2022-11-23T19:26:05.495Z,32.90
2022-11-23T19:28:40.143Z,30.90
2022-11-23T19:31:14.994Z,30.60
2022-11-23T19:33:49.243Z,28.10
2022-11-23T19:36:24.084Z,29.30
2022-11-23T19:38:58.408Z,30.90
2022-11-23T19:41:32.114Z,30.30
2022-11-23T19:44:05.146Z,31.60
2022-11-23T19:46:37.786Z,28.80
2022-11-23T19:49:13.490Z,31.10
2022-11-23T19:51:47.659Z,35.90
2022-11-23T19:54:20.197Z,31.60
2022-11-23T19:56:54.516Z,36.20
2022-11-23T19:59:28.250Z,31.20
2022-11-23T20:02:00.990Z,31.90
2022-11-23T20:07:04.607Z,32.00
2022-11-23T20:09:37.201Z,30.50
2022-11-23T20:12:10.043Z,34.00
2022-11-23T20:17:13.491Z,29.10
2022-11-23T20:19:46.355Z,30.30
2022-11-23T20:22:19.191Z,30.70
2022-11-23T20:24:58.310Z,31.30
2022-11-23T20:27:33.718Z,31.20
2022-11-23T20:30:07.266Z,33.10
2022-11-23T20:32:39.834Z,35.40
2022-11-23T20:35:13.344Z,34.00
2022-11-23T20:37:46.728Z,31.30
2022-11-23T20:40:19.634Z,36.10
2022-11-23T20:42:52.177Z,35.50
2022-11-23T20:45:24.842Z,31.50
2022-11-23T20:47:58.335Z,35.10
2022-11-23T20:50:31.544Z,36.30
2022-11-23T20:53:04.846Z,36.00
2022-11-23T20:55:37.364Z,31.80
2022-11-23T20:58:10.096Z,36.40
2022-11-23T21:00:46.075Z,35.00
2022-11-23T21:03:21.394Z,35.00
2022-11-23T21:05:54.331Z,33.90
2022-11-23T21:08:34.316Z,35.70
2022-11-23T21:11:31.753Z,36.10
2022-11-23T21:14:15.655Z,36.60
2022-11-23T21:16:55.379Z,37.50
2022-11-23T21:19:29.978Z,33.40
2022-11-23T21:22:06.323Z,37.00
2022-11-23T21:24:39.191Z,38.40
2022-11-23T21:32:16.876Z,34.00
2022-11-23T21:34:49.507Z,38.60
2022-11-23T21:37:21.937Z,36.40
2022-11-23T21:39:54.606Z,32.90
2022-11-23T21:42:27.457Z,30.10
2022-11-23T21:44:59.914Z,35.10
2022-11-23T21:47:32.538Z,34.20
2022-11-23T21:50:05.166Z,32.70
2022-11-23T21:52:37.666Z,32.00
2022-11-23T21:55:11.797Z,33.20
2022-11-23T21:57:44.265Z,31.30
2022-11-23T22:00:19.154Z,36.00
2022-11-23T22:02:51.728Z,31.90
2022-11-23T22:05:24.379Z,33.50
2022-11-23T22:08:27.607Z,31.10
2022-11-23T22:10:49.390Z,31.10
2022-11-23T22:13:22.066Z,33.00
2022-11-23T22:15:54.795Z,36.60
2022-11-23T22:20:58.266Z,34.50
2022-11-23T22:23:30.867Z,35.40
2022-11-23T22:26:05.584Z,35.40
2022-11-23T22:28:40.783Z,33.20
2022-11-23T22:31:15.111Z,31.70
2022-11-23T22:33:47.789Z,34.50
2022-11-23T22:39:01.350Z,31.50
2022-11-23T22:41:37.499Z,32.40
2022-11-23T22:44:11.973Z,33.30
2022-11-23T22:46:47.021Z,31.80
2022-11-23T22:49:19.728Z,34.50
2022-11-23T22:54:23.164Z,29.20
2022-11-23T22:56:55.616Z,31.60
2022-11-23T22:59:28.124Z,30.60
2022-11-23T23:02:00.613Z,31.60
2022-11-23T23:04:33.587Z,29.70
2022-11-23T23:07:06.419Z,32.30
2022-11-23T23:09:38.969Z,32.00
2022-11-23T23:12:11.472Z,30.00
2022-11-23T23:14:44.000Z,26.30
2022-11-23T23:17:16.489Z,29.30
2022-11-23T23:19:48.907Z,31.90
2022-11-23T23:22:21.389Z,31.20
2022-11-23T23:24:53.844Z,26.30
2022-11-23T23:27:26.353Z,29.90
2022-11-23T23:29:59.877Z,25.60
2022-11-23T23:32:32.519Z,27.20
2022-11-23T23:35:05.310Z,28.20
2022-11-23T23:37:37.841Z,28.40
2022-11-23T23:40:12.164Z,28.30
2022-11-23T23:42:44.644Z,26.10
2022-11-23T23:45:17.358Z,27.00
2022-11-23T23:47:49.850Z,27.80
2022-11-23T23:50:22.425Z,25.70
2022-11-23T23:52:54.950Z,27.00
2022-11-23T23:55:27.488Z,27.70
2022-11-23T23:58:02.017Z,30.00
